sensor_id;sensor_type;location;lat;lon;timestamp;P1;durP1;ratioP1;P2;durP2;ratioP2
19434;SDS011;9853;50.848;4.108;2022-08-01T00:01:22;6.93;;;1.65;;
19434;SDS011;9853;50.848;4.108;2022-08-01T00:03:22;3.03;;;1.35;;
19434;SDS011;9853;50.848;4.108;2022-08-01T00:05:23;4.20;;;1.63;;
19434;SDS011;9853;50.848;4.108;2022-08-01T00:07:24;3.90;;;1.70;;
19434;SDS011;9853;50.848;4.108;2022-08-01T00:09:24;6.05;;;1.65;;
19434;SDS011;9853;50.848;4.108;2022-08-01T00:11:25;4.15;;;1.63;;
19434;SDS011;9853;50.848;4.108;2022-08-01T00:13:26;4.63;;;1.60;;
19434;SDS011;9853;50.848;4.108;2022-08-01T00:15:27;5.47;;;1.90;;
19434;SDS011;9853;50.848;4.108;2022-08-01T00:17:27;4.00;;;1.75;;
19434;SDS011;9853;50.848;4.108;2022-08-01T00:19:28;4.43;;;1.95;;
19434;SDS011;9853;50.848;4.108;2022-08-01T00:21:29;6.03;;;1.80;;
19434;SDS011;9853;50.848;4.108;2022-08-01T00:23:30;3.47;;;1.42;;
19434;SDS011;9853;50.848;4.108;2022-08-01T00:25:30;5.00;;;1.63;;
19434;SDS011;9853;50.848;4.108;2022-08-01T00:27:31;4.03;;;1.90;;
19434;SDS011;9853;50.848;4.108;2022-08-01T00:29:34;5.30;;;1.73;;
19434;SDS011;9853;50.848;4.108;2022-08-01T00:31:35;5.88;;;1.60;;
19434;SDS011;9853;50.848;4.108;2022-08-01T00:33:36;4.47;;;2.00;;
19434;SDS011;9853;50.848;4.108;2022-08-01T00:35:37;4.57;;;1.77;;
19434;SDS011;9853;50.848;4.108;2022-08-01T00:37:37;5.35;;;1.85;;
19434;SDS011;9853;50.848;4.108;2022-08-01T00:39:38;4.60;;;1.90;;
19434;SDS011;9853;50.848;4.108;2022-08-01T00:41:39;8.45;;;2.00;;
19434;SDS011;9853;50.848;4.108;2022-08-01T00:43:39;10.75;;;2.20;;
19434;SDS011;9853;50.848;4.108;2022-08-01T00:45:40;6.43;;;2.15;;
19434;SDS011;9853;50.848;4.108;2022-08-01T00:47:41;7.88;;;2.53;;
19434;SDS011;9853;50.848;4.108;2022-08-01T00:49:42;6.60;;;2.33;;
19434;SDS011;9853;50.848;4.108;2022-08-01T00:51:43;8.93;;;2.42;;
19434;SDS011;9853;50.848;4.108;2022-08-01T00:53:44;5.90;;;2.42;;
19434;SDS011;9853;50.848;4.108;2022-08-01T00:55:46;9.18;;;2.90;;
19434;SDS011;9853;50.848;4.108;2022-08-01T00:57:48;6.53;;;2.85;;
19434;SDS011;9853;50.848;4.108;2022-08-01T00:59:49;8.52;;;2.85;;
19434;SDS011;9853;50.848;4.108;2022-08-01T01:01:51;7.63;;;2.63;;
19434;SDS011;9853;50.848;4.108;2022-08-01T01:03:52;8.75;;;3.40;;
19434;SDS011;9853;50.848;4.108;2022-08-01T01:08:32;11.57;;;4.50;;
19434;SDS011;9853;50.848;4.108;2022-08-01T01:10:49;12.32;;;4.18;;
19434;SDS011;9853;50.848;4.108;2022-08-01T01:13:06;10.45;;;4.03;;
19434;SDS011;9853;50.848;4.108;2022-08-01T01:17:46;15.00;;;4.93;;
19434;SDS011;9853;50.848;4.108;2022-08-01T01:20:34;11.15;;;4.10;;
19434;SDS011;9853;50.848;4.108;2022-08-01T01:27:29;13.15;;;4.40;;
19434;SDS011;9853;50.848;4.108;2022-08-01T01:29:42;11.13;;;4.60;;
19434;SDS011;9853;50.848;4.108;2022-08-01T01:32:43;12.80;;;4.65;;
19434;SDS011;9853;50.848;4.108;2022-08-01T01:34:48;13.55;;;4.95;;
19434;SDS011;9853;50.848;4.108;2022-08-01T01:36:58;15.75;;;5.50;;
19434;SDS011;9853;50.848;4.108;2022-08-01T01:39:01;14.40;;;5.82;;
19434;SDS011;9853;50.848;4.108;2022-08-01T01:41:02;15.68;;;4.93;;
19434;SDS011;9853;50.848;4.108;2022-08-01T01:43:05;16.30;;;5.78;;
19434;SDS011;9853;50.848;4.108;2022-08-01T01:45:11;14.10;;;5.50;;
19434;SDS011;9853;50.848;4.108;2022-08-01T01:47:13;16.85;;;5.78;;
19434;SDS011;9853;50.848;4.108;2022-08-01T01:49:15;16.73;;;6.05;;
19434;SDS011;9853;50.848;4.108;2022-08-01T01:51:17;11.88;;;4.88;;
19434;SDS011;9853;50.848;4.108;2022-08-01T01:53:22;15.98;;;4.97;;
19434;SDS011;9853;50.848;4.108;2022-08-01T01:55:24;13.73;;;4.88;;
19434;SDS011;9853;50.848;4.108;2022-08-01T01:57:26;13.75;;;5.03;;
19434;SDS011;9853;50.848;4.108;2022-08-01T01:59:30;11.98;;;4.75;;
19434;SDS011;9853;50.848;4.108;2022-08-01T02:01:34;12.00;;;4.57;;
19434;SDS011;9853;50.848;4.108;2022-08-01T02:03:36;14.20;;;4.45;;
19434;SDS011;9853;50.848;4.108;2022-08-01T02:05:38;10.73;;;3.78;;
19434;SDS011;9853;50.848;4.108;2022-08-01T02:07:41;11.25;;;3.75;;
19434;SDS011;9853;50.848;4.108;2022-08-01T02:09:43;8.70;;;3.50;;
19434;SDS011;9853;50.848;4.108;2022-08-01T02:11:47;8.52;;;3.33;;
19434;SDS011;9853;50.848;4.108;2022-08-01T02:13:53;10.80;;;3.38;;
19434;SDS011;9853;50.848;4.108;2022-08-01T02:15:57;14.63;;;4.05;;
19434;SDS011;9853;50.848;4.108;2022-08-01T02:17:58;11.30;;;3.80;;
19434;SDS011;9853;50.848;4.108;2022-08-01T02:20:01;13.65;;;4.22;;
19434;SDS011;9853;50.848;4.108;2022-08-01T02:22:06;10.68;;;3.83;;
19434;SDS011;9853;50.848;4.108;2022-08-01T02:26:39;10.15;;;4.50;;
19434;SDS011;9853;50.848;4.108;2022-08-01T02:29:05;12.38;;;4.72;;
19434;SDS011;9853;50.848;4.108;2022-08-01T02:31:07;12.90;;;4.38;;
19434;SDS011;9853;50.848;4.108;2022-08-01T02:33:34;10.02;;;4.90;;
19434;SDS011;9853;50.848;4.108;2022-08-01T02:35:38;11.00;;;5.05;;
19434;SDS011;9853;50.848;4.108;2022-08-01T02:37:41;14.90;;;5.53;;
19434;SDS011;9853;50.848;4.108;2022-08-01T02:39:46;14.88;;;5.30;;
19434;SDS011;9853;50.848;4.108;2022-08-01T02:41:51;9.70;;;4.45;;
19434;SDS011;9853;50.848;4.108;2022-08-01T02:43:58;16.17;;;5.43;;
19434;SDS011;9853;50.848;4.108;2022-08-01T02:46:04;12.30;;;5.30;;
19434;SDS011;9853;50.848;4.108;2022-08-01T02:48:09;12.70;;;6.18;;
19434;SDS011;9853;50.848;4.108;2022-08-01T02:50:12;14.25;;;6.03;;
19434;SDS011;9853;50.848;4.108;2022-08-01T02:52:15;17.38;;;7.60;;
19434;SDS011;9853;50.848;4.108;2022-08-01T02:54:17;19.05;;;7.10;;
19434;SDS011;9853;50.848;4.108;2022-08-01T02:56:35;20.40;;;6.97;;
19434;SDS011;9853;50.848;4.108;2022-08-01T02:58:57;19.13;;;7.18;;
19434;SDS011;9853;50.848;4.108;2022-08-01T03:00:57;20.80;;;7.65;;
19434;SDS011;9853;50.848;4.108;2022-08-01T03:02:59;22.60;;;6.80;;
19434;SDS011;9853;50.848;4.108;2022-08-01T03:05:04;18.50;;;7.18;;
19434;SDS011;9853;50.848;4.108;2022-08-01T03:07:09;18.85;;;7.78;;
19434;SDS011;9853;50.848;4.108;2022-08-01T03:09:11;21.88;;;8.13;;
19434;SDS011;9853;50.848;4.108;2022-08-01T03:11:13;20.20;;;8.27;;
19434;SDS011;9853;50.848;4.108;2022-08-01T03:13:37;23.70;;;9.02;;
19434;SDS011;9853;50.848;4.108;2022-08-01T03:15:40;21.58;;;9.38;;
19434;SDS011;9853;50.848;4.108;2022-08-01T03:17:57;20.67;;;9.45;;
19434;SDS011;9853;50.848;4.108;2022-08-01T03:20:22;30.33;;;9.88;;
19434;SDS011;9853;50.848;4.108;2022-08-01T03:22:28;26.98;;;10.48;;
19434;SDS011;9853;50.848;4.108;2022-08-01T03:24:32;27.23;;;9.88;;
19434;SDS011;9853;50.848;4.108;2022-08-01T03:26:35;22.55;;;9.65;;
19434;SDS011;9853;50.848;4.108;2022-08-01T03:28:37;21.30;;;11.25;;
19434;SDS011;9853;50.848;4.108;2022-08-01T03:30:40;21.33;;;11.57;;
19434;SDS011;9853;50.848;4.108;2022-08-01T03:32:49;24.98;;;11.13;;
19434;SDS011;9853;50.848;4.108;2022-08-01T03:35:13;29.90;;;11.63;;
19434;SDS011;9853;50.848;4.108;2022-08-01T03:39:25;30.23;;;12.20;;
19434;SDS011;9853;50.848;4.108;2022-08-01T03:41:52;31.88;;;13.02;;
19434;SDS011;9853;50.848;4.108;2022-08-01T03:44:18;31.48;;;13.88;;
19434;SDS011;9853;50.848;4.108;2022-08-01T03:46:27;35.53;;;13.98;;
19434;SDS011;9853;50.848;4.108;2022-08-01T03:48:47;26.83;;;14.05;;
19434;SDS011;9853;50.848;4.108;2022-08-01T03:50:50;32.63;;;14.57;;
19434;SDS011;9853;50.848;4.108;2022-08-01T03:52:52;32.53;;;14.82;;
19434;SDS011;9853;50.848;4.108;2022-08-01T03:54:55;25.95;;;13.88;;
19434;SDS011;9853;50.848;4.108;2022-08-01T03:57:17;29.17;;;14.07;;
19434;SDS011;9853;50.848;4.108;2022-08-01T03:59:19;35.95;;;14.57;;
19434;SDS011;9853;50.848;4.108;2022-08-01T04:01:21;26.27;;;13.55;;
19434;SDS011;9853;50.848;4.108;2022-08-01T04:03:22;28.67;;;14.05;;
19434;SDS011;9853;50.848;4.108;2022-08-01T04:05:23;26.23;;;13.43;;
19434;SDS011;9853;50.848;4.108;2022-08-01T04:07:26;32.95;;;14.88;;
19434;SDS011;9853;50.848;4.108;2022-08-01T04:09:35;28.08;;;14.88;;
19434;SDS011;9853;50.848;4.108;2022-08-01T04:11:36;31.38;;;15.68;;
19434;SDS011;9853;50.848;4.108;2022-08-01T04:13:37;30.98;;;17.20;;
19434;SDS011;9853;50.848;4.108;2022-08-01T04:15:38;30.30;;;16.00;;
19434;SDS011;9853;50.848;4.108;2022-08-01T04:17:38;32.78;;;16.40;;
19434;SDS011;9853;50.848;4.108;2022-08-01T04:19:39;32.83;;;17.55;;
19434;SDS011;9853;50.848;4.108;2022-08-01T04:21:40;32.70;;;15.77;;
19434;SDS011;9853;50.848;4.108;2022-08-01T04:23:41;32.92;;;15.70;;
19434;SDS011;9853;50.848;4.108;2022-08-01T04:25:44;29.48;;;16.83;;
19434;SDS011;9853;50.848;4.108;2022-08-01T04:27:49;35.40;;;17.10;;
19434;SDS011;9853;50.848;4.108;2022-08-01T04:29:53;31.58;;;16.30;;
19434;SDS011;9853;50.848;4.108;2022-08-01T04:31:58;32.10;;;17.88;;
19434;SDS011;9853;50.848;4.108;2022-08-01T04:34:03;33.35;;;16.88;;
19434;SDS011;9853;50.848;4.108;2022-08-01T04:36:25;28.48;;;16.25;;
19434;SDS011;9853;50.848;4.108;2022-08-01T04:38:27;31.48;;;16.70;;
19434;SDS011;9853;50.848;4.108;2022-08-01T04:40:29;30.08;;;16.70;;
19434;SDS011;9853;50.848;4.108;2022-08-01T04:42:31;34.70;;;18.17;;
19434;SDS011;9853;50.848;4.108;2022-08-01T04:44:36;39.05;;;19.27;;
19434;SDS011;9853;50.848;4.108;2022-08-01T04:46:37;34.88;;;17.70;;
19434;SDS011;9853;50.848;4.108;2022-08-01T04:48:41;30.95;;;17.08;;
19434;SDS011;9853;50.848;4.108;2022-08-01T04:50:42;31.50;;;17.08;;
19434;SDS011;9853;50.848;4.108;2022-08-01T04:52:43;37.25;;;18.40;;
19434;SDS011;9853;50.848;4.108;2022-08-01T04:54:46;31.95;;;17.63;;
19434;SDS011;9853;50.848;4.108;2022-08-01T04:56:47;35.53;;;18.50;;
19434;SDS011;9853;50.848;4.108;2022-08-01T04:58:48;31.95;;;18.05;;
19434;SDS011;9853;50.848;4.108;2022-08-01T05:01:09;37.88;;;19.50;;
19434;SDS011;9853;50.848;4.108;2022-08-01T05:03:10;39.05;;;18.73;;
19434;SDS011;9853;50.848;4.108;2022-08-01T05:05:11;37.45;;;18.75;;
19434;SDS011;9853;50.848;4.108;2022-08-01T05:07:15;31.77;;;16.83;;
19434;SDS011;9853;50.848;4.108;2022-08-01T05:09:15;32.28;;;17.92;;
19434;SDS011;9853;50.848;4.108;2022-08-01T05:11:16;35.83;;;17.20;;
19434;SDS011;9853;50.848;4.108;2022-08-01T05:13:17;28.70;;;15.25;;
19434;SDS011;9853;50.848;4.108;2022-08-01T05:15:17;26.85;;;15.50;;
19434;SDS011;9853;50.848;4.108;2022-08-01T05:17:18;24.42;;;14.60;;
19434;SDS011;9853;50.848;4.108;2022-08-01T05:19:19;28.30;;;14.52;;
19434;SDS011;9853;50.848;4.108;2022-08-01T05:21:21;25.27;;;14.60;;
19434;SDS011;9853;50.848;4.108;2022-08-01T05:23:22;24.50;;;14.27;;
19434;SDS011;9853;50.848;4.108;2022-08-01T05:25:22;26.92;;;13.32;;
19434;SDS011;9853;50.848;4.108;2022-08-01T05:27:23;26.63;;;13.60;;
19434;SDS011;9853;50.848;4.108;2022-08-01T05:29:24;23.80;;;12.77;;
19434;SDS011;9853;50.848;4.108;2022-08-01T05:31:25;23.27;;;12.23;;
19434;SDS011;9853;50.848;4.108;2022-08-01T05:33:26;23.58;;;12.52;;
19434;SDS011;9853;50.848;4.108;2022-08-01T05:35:27;20.77;;;11.95;;
19434;SDS011;9853;50.848;4.108;2022-08-01T05:37:28;21.42;;;11.43;;
19434;SDS011;9853;50.848;4.108;2022-08-01T05:39:29;21.65;;;11.52;;
19434;SDS011;9853;50.848;4.108;2022-08-01T05:41:33;21.38;;;11.25;;
19434;SDS011;9853;50.848;4.108;2022-08-01T05:43:34;19.70;;;10.25;;
19434;SDS011;9853;50.848;4.108;2022-08-01T05:45:34;19.23;;;10.10;;
19434;SDS011;9853;50.848;4.108;2022-08-01T05:47:35;21.00;;;10.18;;
19434;SDS011;9853;50.848;4.108;2022-08-01T05:49:36;16.85;;;9.23;;
19434;SDS011;9853;50.848;4.108;2022-08-01T05:51:36;19.20;;;9.82;;
19434;SDS011;9853;50.848;4.108;2022-08-01T05:53:37;17.52;;;8.93;;
19434;SDS011;9853;50.848;4.108;2022-08-01T05:55:39;14.80;;;8.65;;
19434;SDS011;9853;50.848;4.108;2022-08-01T05:57:39;17.85;;;9.10;;
19434;SDS011;9853;50.848;4.108;2022-08-01T05:59:42;16.75;;;8.82;;
19434;SDS011;9853;50.848;4.108;2022-08-01T06:01:43;15.18;;;8.25;;
19434;SDS011;9853;50.848;4.108;2022-08-01T06:03:43;17.27;;;8.07;;
19434;SDS011;9853;50.848;4.108;2022-08-01T06:05:44;17.52;;;8.70;;
19434;SDS011;9853;50.848;4.108;2022-08-01T06:07:45;14.65;;;8.55;;
19434;SDS011;9853;50.848;4.108;2022-08-01T06:09:46;14.88;;;8.02;;
19434;SDS011;9853;50.848;4.108;2022-08-01T06:11:47;12.07;;;7.28;;
19434;SDS011;9853;50.848;4.108;2022-08-01T06:13:48;13.40;;;7.70;;
19434;SDS011;9853;50.848;4.108;2022-08-01T06:15:48;17.95;;;7.88;;
19434;SDS011;9853;50.848;4.108;2022-08-01T06:17:49;12.20;;;7.20;;
19434;SDS011;9853;50.848;4.108;2022-08-01T06:19:50;12.38;;;7.13;;
19434;SDS011;9853;50.848;4.108;2022-08-01T06:21:51;12.45;;;6.82;;
19434;SDS011;9853;50.848;4.108;2022-08-01T06:23:52;12.20;;;6.38;;
19434;SDS011;9853;50.848;4.108;2022-08-01T06:25:54;13.57;;;6.63;;
19434;SDS011;9853;50.848;4.108;2022-08-01T06:27:58;11.13;;;6.22;;
19434;SDS011;9853;50.848;4.108;2022-08-01T06:30:00;11.82;;;5.50;;
19434;SDS011;9853;50.848;4.108;2022-08-01T06:32:01;12.68;;;5.93;;
19434;SDS011;9853;50.848;4.108;2022-08-01T06:34:01;9.00;;;5.47;;
19434;SDS011;9853;50.848;4.108;2022-08-01T06:36:02;6.63;;;4.35;;
19434;SDS011;9853;50.848;4.108;2022-08-01T06:38:05;11.27;;;4.60;;
19434;SDS011;9853;50.848;4.108;2022-08-01T06:40:09;8.73;;;4.30;;
19434;SDS011;9853;50.848;4.108;2022-08-01T06:42:11;10.15;;;4.32;;
19434;SDS011;9853;50.848;4.108;2022-08-01T06:44:12;6.80;;;4.55;;
19434;SDS011;9853;50.848;4.108;2022-08-01T06:46:13;8.63;;;4.90;;
19434;SDS011;9853;50.848;4.108;2022-08-01T06:48:14;7.05;;;4.45;;
19434;SDS011;9853;50.848;4.108;2022-08-01T06:50:15;8.25;;;4.78;;
19434;SDS011;9853;50.848;4.108;2022-08-01T06:52:15;10.75;;;4.55;;
19434;SDS011;9853;50.848;4.108;2022-08-01T06:54:16;11.10;;;5.30;;
19434;SDS011;9853;50.848;4.108;2022-08-01T06:56:17;9.25;;;4.38;;
19434;SDS011;9853;50.848;4.108;2022-08-01T06:58:17;9.25;;;5.18;;
19434;SDS011;9853;50.848;4.108;2022-08-01T07:00:19;7.53;;;4.72;;
19434;SDS011;9853;50.848;4.108;2022-08-01T07:02:23;6.72;;;4.35;;
19434;SDS011;9853;50.848;4.108;2022-08-01T07:04:23;8.93;;;4.38;;
19434;SDS011;9853;50.848;4.108;2022-08-01T07:06:24;8.88;;;4.13;;
19434;SDS011;9853;50.848;4.108;2022-08-01T07:08:25;10.32;;;5.35;;
19434;SDS011;9853;50.848;4.108;2022-08-01T07:10:26;8.80;;;5.03;;
19434;SDS011;9853;50.848;4.108;2022-08-01T07:12:27;8.38;;;5.22;;
19434;SDS011;9853;50.848;4.108;2022-08-01T07:14:29;8.98;;;5.60;;
19434;SDS011;9853;50.848;4.108;2022-08-01T07:16:30;9.30;;;5.40;;
19434;SDS011;9853;50.848;4.108;2022-08-01T07:18:31;7.72;;;4.78;;
19434;SDS011;9853;50.848;4.108;2022-08-01T07:20:31;9.23;;;5.63;;
19434;SDS011;9853;50.848;4.108;2022-08-01T07:22:32;9.80;;;4.80;;
19434;SDS011;9853;50.848;4.108;2022-08-01T07:24:33;8.85;;;4.80;;
19434;SDS011;9853;50.848;4.108;2022-08-01T07:26:34;7.25;;;4.68;;
19434;SDS011;9853;50.848;4.108;2022-08-01T07:28:34;7.05;;;4.40;;
19434;SDS011;9853;50.848;4.108;2022-08-01T07:30:35;6.00;;;4.05;;
19434;SDS011;9853;50.848;4.108;2022-08-01T07:32:37;6.75;;;2.60;;
19434;SDS011;9853;50.848;4.108;2022-08-01T07:34:38;4.63;;;2.60;;
19434;SDS011;9853;50.848;4.108;2022-08-01T07:36:38;3.78;;;2.63;;
19434;SDS011;9853;50.848;4.108;2022-08-01T07:38:40;2.55;;;2.17;;
19434;SDS011;9853;50.848;4.108;2022-08-01T07:40:41;4.75;;;2.58;;
19434;SDS011;9853;50.848;4.108;2022-08-01T07:42:41;4.55;;;2.55;;
19434;SDS011;9853;50.848;4.108;2022-08-01T07:44:44;3.85;;;2.35;;
19434;SDS011;9853;50.848;4.108;2022-08-01T07:46:45;4.43;;;2.03;;
19434;SDS011;9853;50.848;4.108;2022-08-01T07:48:46;3.88;;;2.25;;
19434;SDS011;9853;50.848;4.108;2022-08-01T07:50:46;2.83;;;2.55;;
19434;SDS011;9853;50.848;4.108;2022-08-01T07:52:47;3.38;;;2.45;;
19434;SDS011;9853;50.848;4.108;2022-08-01T07:54:48;2.85;;;2.45;;
19434;SDS011;9853;50.848;4.108;2022-08-01T07:56:49;2.85;;;2.20;;
19434;SDS011;9853;50.848;4.108;2022-08-01T07:58:50;6.32;;;2.60;;
19434;SDS011;9853;50.848;4.108;2022-08-01T08:00:51;6.38;;;2.50;;
19434;SDS011;9853;50.848;4.108;2022-08-01T08:02:52;5.00;;;3.92;;
19434;SDS011;9853;50.848;4.108;2022-08-01T08:04:53;6.68;;;4.80;;
19434;SDS011;9853;50.848;4.108;2022-08-01T08:06:54;5.97;;;4.80;;
19434;SDS011;9853;50.848;4.108;2022-08-01T08:08:55;8.98;;;4.32;;
19434;SDS011;9853;50.848;4.108;2022-08-01T08:10:55;9.00;;;3.65;;
19434;SDS011;9853;50.848;4.108;2022-08-01T08:12:56;4.53;;;3.13;;
19434;SDS011;9853;50.848;4.108;2022-08-01T08:14:57;5.18;;;3.25;;
19434;SDS011;9853;50.848;4.108;2022-08-01T08:16:58;3.08;;;2.17;;
19434;SDS011;9853;50.848;4.108;2022-08-01T08:18:59;5.68;;;2.17;;
19434;SDS011;9853;50.848;4.108;2022-08-01T08:21:00;2.38;;;2.00;;
19434;SDS011;9853;50.848;4.108;2022-08-01T08:23:01;3.40;;;1.73;;
19434;SDS011;9853;50.848;4.108;2022-08-01T08:25:01;2.17;;;1.42;;
19434;SDS011;9853;50.848;4.108;2022-08-01T08:27:02;5.00;;;1.85;;
19434;SDS011;9853;50.848;4.108;2022-08-01T08:29:03;3.60;;;1.50;;
19434;SDS011;9853;50.848;4.108;2022-08-01T08:31:04;5.18;;;1.40;;
19434;SDS011;9853;50.848;4.108;2022-08-01T08:33:05;1.90;;;1.40;;
19434;SDS011;9853;50.848;4.108;2022-08-01T08:35:06;1.98;;;1.20;;
19434;SDS011;9853;50.848;4.108;2022-08-01T08:37:08;2.30;;;1.40;;
19434;SDS011;9853;50.848;4.108;2022-08-01T08:39:08;1.80;;;1.38;;
19434;SDS011;9853;50.848;4.108;2022-08-01T08:41:09;2.15;;;1.55;;
19434;SDS011;9853;50.848;4.108;2022-08-01T08:43:10;2.30;;;1.30;;
19434;SDS011;9853;50.848;4.108;2022-08-01T08:45:11;4.57;;;0.82;;
19434;SDS011;9853;50.848;4.108;2022-08-01T08:47:12;2.50;;;1.20;;
19434;SDS011;9853;50.848;4.108;2022-08-01T08:49:16;3.90;;;1.20;;
19434;SDS011;9853;50.848;4.108;2022-08-01T08:51:19;1.17;;;1.05;;
19434;SDS011;9853;50.848;4.108;2022-08-01T08:53:22;2.67;;;1.33;;
19434;SDS011;9853;50.848;4.108;2022-08-01T08:55:23;6.68;;;2.38;;
19434;SDS011;9853;50.848;4.108;2022-08-01T08:57:26;3.80;;;2.10;;
19434;SDS011;9853;50.848;4.108;2022-08-01T08:59:27;3.90;;;2.30;;
19434;SDS011;9853;50.848;4.108;2022-08-01T09:01:28;4.93;;;2.63;;
19434;SDS011;9853;50.848;4.108;2022-08-01T09:03:32;5.80;;;3.00;;
19434;SDS011;9853;50.848;4.108;2022-08-01T09:05:33;9.02;;;3.30;;
19434;SDS011;9853;50.848;4.108;2022-08-01T09:07:34;4.95;;;3.40;;
19434;SDS011;9853;50.848;4.108;2022-08-01T09:09:35;4.32;;;3.15;;
19434;SDS011;9853;50.848;4.108;2022-08-01T09:11:37;6.18;;;3.50;;
19434;SDS011;9853;50.848;4.108;2022-08-01T09:13:37;8.65;;;3.97;;
19434;SDS011;9853;50.848;4.108;2022-08-01T09:15:42;6.07;;;3.50;;
19434;SDS011;9853;50.848;4.108;2022-08-01T09:17:44;2.50;;;2.30;;
19434;SDS011;9853;50.848;4.108;2022-08-01T09:19:46;3.25;;;1.90;;
19434;SDS011;9853;50.848;4.108;2022-08-01T09:21:55;3.45;;;1.90;;
19434;SDS011;9853;50.848;4.108;2022-08-01T09:24:13;2.97;;;1.80;;
19434;SDS011;9853;50.848;4.108;2022-08-01T09:26:16;3.40;;;1.90;;
19434;SDS011;9853;50.848;4.108;2022-08-01T09:28:30;3.22;;;2.00;;
19434;SDS011;9853;50.848;4.108;2022-08-01T09:30:38;3.65;;;1.98;;
19434;SDS011;9853;50.848;4.108;2022-08-01T09:37:29;2.28;;;1.50;;
19434;SDS011;9853;50.848;4.108;2022-08-01T09:39:31;3.05;;;1.50;;
19434;SDS011;9853;50.848;4.108;2022-08-01T09:41:37;3.08;;;1.60;;
19434;SDS011;9853;50.848;4.108;2022-08-01T09:43:38;1.55;;;0.90;;
19434;SDS011;9853;50.848;4.108;2022-08-01T09:45:39;0.98;;;0.70;;
19434;SDS011;9853;50.848;4.108;2022-08-01T09:47:40;0.88;;;0.80;;
19434;SDS011;9853;50.848;4.108;2022-08-01T09:49:41;1.75;;;0.70;;
19434;SDS011;9853;50.848;4.108;2022-08-01T09:51:42;1.92;;;0.80;;
19434;SDS011;9853;50.848;4.108;2022-08-01T09:53:44;1.95;;;0.68;;
19434;SDS011;9853;50.848;4.108;2022-08-01T09:55:47;1.33;;;0.73;;
19434;SDS011;9853;50.848;4.108;2022-08-01T09:57:57;3.70;;;0.80;;
19434;SDS011;9853;50.848;4.108;2022-08-01T10:00:01;1.38;;;0.70;;
19434;SDS011;9853;50.848;4.108;2022-08-01T10:02:13;1.23;;;0.80;;
19434;SDS011;9853;50.848;4.108;2022-08-01T10:04:25;5.00;;;1.27;;
19434;SDS011;9853;50.848;4.108;2022-08-01T10:06:27;2.05;;;1.45;;
19434;SDS011;9853;50.848;4.108;2022-08-01T10:08:28;4.65;;;1.75;;
19434;SDS011;9853;50.848;4.108;2022-08-01T10:13:09;4.55;;;1.52;;
19434;SDS011;9853;50.848;4.108;2022-08-01T10:15:13;2.40;;;1.58;;
19434;SDS011;9853;50.848;4.108;2022-08-01T10:17:16;2.78;;;1.45;;
19434;SDS011;9853;50.848;4.108;2022-08-01T10:19:18;2.33;;;1.30;;
19434;SDS011;9853;50.848;4.108;2022-08-01T10:21:21;3.63;;;1.42;;
19434;SDS011;9853;50.848;4.108;2022-08-01T10:23:26;2.40;;;1.35;;
19434;SDS011;9853;50.848;4.108;2022-08-01T10:25:33;2.03;;;1.30;;
19434;SDS011;9853;50.848;4.108;2022-08-01T10:27:37;2.38;;;1.17;;
19434;SDS011;9853;50.848;4.108;2022-08-01T10:31:46;3.83;;;1.48;;
19434;SDS011;9853;50.848;4.108;2022-08-01T10:33:48;2.78;;;1.35;;
19434;SDS011;9853;50.848;4.108;2022-08-01T10:35:50;3.17;;;1.30;;
19434;SDS011;9853;50.848;4.108;2022-08-01T10:37:51;3.28;;;1.23;;
19434;SDS011;9853;50.848;4.108;2022-08-01T10:39:57;3.70;;;1.30;;
19434;SDS011;9853;50.848;4.108;2022-08-01T10:41:59;3.97;;;1.50;;
19434;SDS011;9853;50.848;4.108;2022-08-01T10:44:00;3.75;;;2.10;;
19434;SDS011;9853;50.848;4.108;2022-08-01T10:46:04;3.03;;;1.50;;
19434;SDS011;9853;50.848;4.108;2022-08-01T10:48:16;3.45;;;1.90;;
19434;SDS011;9853;50.848;4.108;2022-08-01T10:50:30;2.00;;;1.10;;
19434;SDS011;9853;50.848;4.108;2022-08-01T10:52:39;5.03;;;1.30;;
19434;SDS011;9853;50.848;4.108;2022-08-01T10:54:40;2.10;;;1.48;;
19434;SDS011;9853;50.848;4.108;2022-08-01T10:56:45;2.50;;;1.30;;
19434;SDS011;9853;50.848;4.108;2022-08-01T10:58:47;2.08;;;1.27;;
19434;SDS011;9853;50.848;4.108;2022-08-01T11:00:57;4.60;;;1.30;;
19434;SDS011;9853;50.848;4.108;2022-08-01T11:03:34;1.58;;;1.10;;
19434;SDS011;9853;50.848;4.108;2022-08-01T11:05:35;3.85;;;1.45;;
19434;SDS011;9853;50.848;4.108;2022-08-01T11:09:50;1.80;;;1.40;;
19434;SDS011;9853;50.848;4.108;2022-08-01T11:12:08;1.23;;;0.70;;
19434;SDS011;9853;50.848;4.108;2022-08-01T11:14:10;0.90;;;0.70;;
19434;SDS011;9853;50.848;4.108;2022-08-01T11:16:28;2.63;;;0.80;;
19434;SDS011;9853;50.848;4.108;2022-08-01T11:18:30;3.05;;;0.75;;
19434;SDS011;9853;50.848;4.108;2022-08-01T11:20:35;3.83;;;0.60;;
19434;SDS011;9853;50.848;4.108;2022-08-01T11:25:06;2.47;;;0.80;;
19434;SDS011;9853;50.848;4.108;2022-08-01T11:27:20;2.63;;;0.60;;
19434;SDS011;9853;50.848;4.108;2022-08-01T11:29:26;0.85;;;0.50;;
19434;SDS011;9853;50.848;4.108;2022-08-01T11:31:27;1.10;;;0.55;;
19434;SDS011;9853;50.848;4.108;2022-08-01T11:38:22;1.90;;;0.60;;
19434;SDS011;9853;50.848;4.108;2022-08-01T11:40:25;1.02;;;0.60;;
19434;SDS011;9853;50.848;4.108;2022-08-01T11:42:28;2.65;;;0.80;;
19434;SDS011;9853;50.848;4.108;2022-08-01T11:44:29;1.95;;;0.60;;
19434;SDS011;9853;50.848;4.108;2022-08-01T11:51:25;1.75;;;0.60;;
19434;SDS011;9853;50.848;4.108;2022-08-01T11:53:27;2.50;;;0.60;;
19434;SDS011;9853;50.848;4.108;2022-08-01T11:55:27;2.65;;;0.60;;
19434;SDS011;9853;50.848;4.108;2022-08-01T11:57:30;1.27;;;0.60;;
19434;SDS011;9853;50.848;4.108;2022-08-01T11:59:41;2.75;;;0.60;;
19434;SDS011;9853;50.848;4.108;2022-08-01T12:01:46;2.55;;;0.70;;
19434;SDS011;9853;50.848;4.108;2022-08-01T12:03:54;0.68;;;0.60;;
19434;SDS011;9853;50.848;4.108;2022-08-01T12:05:56;4.72;;;0.77;;
19434;SDS011;9853;50.848;4.108;2022-08-01T12:07:57;4.72;;;1.00;;
19434;SDS011;9853;50.848;4.108;2022-08-01T12:10:08;4.40;;;0.80;;
19434;SDS011;9853;50.848;4.108;2022-08-01T12:12:15;2.53;;;0.80;;
19434;SDS011;9853;50.848;4.108;2022-08-01T12:14:18;2.20;;;0.75;;
19434;SDS011;9853;50.848;4.108;2022-08-01T12:16:20;1.73;;;0.80;;
19434;SDS011;9853;50.848;4.108;2022-08-01T12:18:22;3.05;;;1.23;;
19434;SDS011;9853;50.848;4.108;2022-08-01T12:20:23;2.20;;;1.45;;
19434;SDS011;9853;50.848;4.108;2022-08-01T12:22:25;3.15;;;1.23;;
19434;SDS011;9853;50.848;4.108;2022-08-01T12:24:26;3.33;;;1.20;;
19434;SDS011;9853;50.848;4.108;2022-08-01T12:26:39;2.92;;;1.20;;
19434;SDS011;9853;50.848;4.108;2022-08-01T12:28:41;2.95;;;1.00;;
19434;SDS011;9853;50.848;4.108;2022-08-01T12:30:42;2.55;;;1.27;;
19434;SDS011;9853;50.848;4.108;2022-08-01T12:32:43;2.42;;;1.35;;
19434;SDS011;9853;50.848;4.108;2022-08-01T12:34:46;3.83;;;1.35;;
19434;SDS011;9853;50.848;4.108;2022-08-01T12:36:46;4.00;;;2.03;;
19434;SDS011;9853;50.848;4.108;2022-08-01T12:38:51;2.05;;;1.85;;
19434;SDS011;9853;50.848;4.108;2022-08-01T12:40:53;5.22;;;1.88;;
19434;SDS011;9853;50.848;4.108;2022-08-01T12:42:55;2.53;;;1.52;;
19434;SDS011;9853;50.848;4.108;2022-08-01T12:44:57;4.03;;;1.23;;
19434;SDS011;9853;50.848;4.108;2022-08-01T12:46:58;4.85;;;1.20;;
19434;SDS011;9853;50.848;4.108;2022-08-01T12:49:01;5.00;;;2.00;;
19434;SDS011;9853;50.848;4.108;2022-08-01T12:51:02;4.22;;;1.70;;
19434;SDS011;9853;50.848;4.108;2022-08-01T12:53:03;1.80;;;1.40;;
19434;SDS011;9853;50.848;4.108;2022-08-01T12:57:21;4.03;;;1.30;;
19434;SDS011;9853;50.848;4.108;2022-08-01T12:59:24;1.98;;;1.00;;
19434;SDS011;9853;50.848;4.108;2022-08-01T13:01:26;3.08;;;1.35;;
19434;SDS011;9853;50.848;4.108;2022-08-01T13:03:28;4.10;;;1.08;;
19434;SDS011;9853;50.848;4.108;2022-08-01T13:05:40;3.60;;;1.30;;
19434;SDS011;9853;50.848;4.108;2022-08-01T13:07:48;8.35;;;1.50;;
19434;SDS011;9853;50.848;4.108;2022-08-01T13:09:50;2.25;;;0.93;;
19434;SDS011;9853;50.848;4.108;2022-08-01T13:11:51;2.90;;;1.13;;